Terminal Aerodrome Forecast
Issued by NWS

Home | Current Version | Previous Version | Text Only | Print | Product List | Glossary On
Versions: 1 2 3 4 5 6 7 8 9 10 11 12 13 14 15 16 17
000
FTUS41 KPBZ 262300 CCA
TAFZZV
TAF COR
KZZV 262359Z 2700/2724 35008KT P6SM BKN025 OVC100
     FM270100 35008KT P6SM SCT026 OVC090
     FM270800 33005KT P6SM SCT025=

USA.gov is the U.S. government's official web portal to all federal, state and local government web resources and services.